Galveston, TX

12:55 PM CDT on July 04, 2015 (GMT -0500)
Scholes International At Galveston | | Change Station
CLOSE
Current Station
Airport
Location: Galveston,
Elevation: 3 ft
Nearby Weather Stations

Elev 3 ft 29.27 °N, 94.86 °W | Updated 3 minutes ago

Scattered Clouds
Scattered Clouds
90 °F
Feels Like 106 °F
N
12
Wind Variable Wind from South

Today
High -- | Low -- °F
--% Chance of Precip.
Yesterday
High -- | Low -- °F
Precip. -- in
6:24 AM 8:22 PM
Waning Gibbous, 91% visible
Pressure 30.04 in
Visibility 10.0 miles
Clouds Scattered Clouds 3500 ft
Heat Index 106 °F
Dew Point 79 °F
Humidity 70%
Rainfall 0.09 in
Snow Depth Not available.
UV 10 out of 12
Pollen 3.40 out of 12
Air Quality Not available.
Flu Activity Not available.
METAR KGLS 041752Z 18010KT 10SM SCT035 32/26 A3004 RMK AO2 SLP173 60009 T03220261 10322 20278 58002

More Conditions Fewer Conditions

Pressure 30.04 in
Visibility 10.0 miles
Clouds Scattered Clouds 3500 ft
Heat Index 106 °F
Dew Point 79 °F
Humidity 70%
Rainfall 0.09 in
Snow Depth Not available.
UV 10 out of 12
Pollen 3.40 out of 12
Air Quality Not available.
Flu Activity Not available.
METAR KGLS 041752Z 18010KT 10SM SCT035 32/26 A3004 RMK AO2 SLP173 60009 T03220261 10322 20278 58002

More Conditions Fewer Conditions

10-Day Weather Forecast

×

Almanac

Astronomy

Jul. 04, 2015 Rise Set
Actual Time
Civil Twilight
Nautical Twilight
Astronomical Twilight
Moon
Length of Visible Light
Length of Day
Tomorrow will be .
, % of the Moon is Illuminated

Today's Extremes

State Highs State Lows

Community

WunderPhotos

Upload Photos

1,835,012 photos uploaded!

WunderBlogs® & News

Nearby

Air Quality

  Air Quality AQ Index Pollutant
Not available.

Snow Depth

Station Depth Elevation

Earthquake Activity

City Distance Mag. Time & Date
Minimum magnitude displayed is 2.5.

Coastal Water Temperatures

Place Temperature

Stations

Nearby Weather Stations

Station Location Temp. Windchill Dew Point Humidity Wind Precip. Elev Updated Type